• Join FlightAware (Why Join?)
  • Login
  • US Flag GB Flag 
03:33 EDT


 

Airport Tracker/Info


-or-


 

Live Flight TrackerFlight Track Log ✈ FSR411 ✈ 22-Aug-2013 ✈ KCMI - KMDW

Flight Track Log - Related Links

Times and Time Zones

All times are in EDT time to prevent confusion due to time zone crossing. See the FSR411 flight status page for this flight to view local times or setup timezone preferences in your user account.

Time Position Orientation Groundspeed Altitude Reporting Facility
EDT Latitude Longitude Course Direction KTS MPH feet Rate Location/Type
07:01 40.0869 -88.3181 339° North 237 273 3,500  Level Chicago Center
07:02 40.1517 -88.3525 338° Northwest 254 292 6,100 2,640 Climbing Chicago Center
07:03 40.2217 -88.3939 336° Northwest 281 323 8,900 2,340 Climbing Chicago Center
07:04 40.4586 -88.5168 333° Northwest  Level FlightAware Approximate
07:04 40.3078 -88.3953 359° North 329 379 10,900  Level Chicago Center
07:05 40.5281 -88.5632 333° Northwest  Level FlightAware Approximate
07:05 40.3931 -88.3300 30° Northeast 354 407 11,000  Level Chicago Center
07:06 40.6008 -88.6004 339° North  Level FlightAware Approximate
07:06 40.4828 -88.2714 26° Northeast 362 417 11,000  Level Chicago Center
07:07 40.5706 -88.2119 27° Northeast 358 412 11,000  Level Chicago Center
07:08 40.6586 -88.1525 27° Northeast 359 413 11,000  Level Chicago Center
07:09 40.7486 -88.0922 27° Northeast 362 417 11,000 -180 Level Chicago Center
07:10 40.8581 -88.0183 27° Northeast 370 426 10,700 -720 Descending Chicago Center
07:11 40.9403 -87.9619 27° Northeast 340 391 9,600 -1,140 Descending Chicago Center
07:12 41.0139 -87.9119 27° Northeast 308 354 8,500 -1,140 Descending Chicago Center
07:13 41.0842 -87.8650 27° Northeast 290 334 7,300 -1,140 Descending Chicago Center
07:14 41.1531 -87.8175 27° Northeast 284 327 6,200 -1,140 Descending Chicago Center
07:15 41.2222 -87.7706 27° Northeast 284 327 5,000 -1,140 Descending Chicago Center
07:16 41.2958 -87.7522 11° North 272 313 4,000 -540 Descending Chicago Center
07:17 41.3692 -87.7367 North 270 311 4,000  Level Chicago Center
07:18 41.4578 -87.7158 10° North 272 313 4,000 -240 Level Chicago Center
07:19 41.5250 -87.6997 10° North 262 302 3,600 -600 Descending Chicago Center
07:20 41.5908 -87.6836 10° North 251 289 2,900 -300 Descending Chicago Center
07:21 41.6433 -87.6514 25° Northeast 236 272 3,000  Climbing Chicago Center
07:22 41.6833 -87.6144 35° Northeast 217 250 3,000 -300 Level Chicago Center
07:23 41.7169 -87.6558 317° Northwest 182 209 2,400 -660 Descending Chicago Center
07:24 41.7444 -87.6964 312° West 165 190 1,700 -780 Descending Chicago Center
07:25 41.7725 -87.7356 314° West 140 161 900 -840 Descending Chicago Center
07:27 41.7833 -87.7500 334° Northwest  Level FlightAware Approximate
07:34 41.7860 -87.7524 334° Northwest  Level Estimated